sensor_id;sensor_type;location;lat;lon;timestamp;P1;durP1;ratioP1;P2;durP2;ratioP2
40044;SDS011;25735;48.122;11.422;2023-04-15T00:00:49;8.43;;;2.80;;
40044;SDS011;25735;48.122;11.422;2023-04-15T00:03:15;3.72;;;2.17;;
40044;SDS011;25735;48.122;11.422;2023-04-15T00:05:41;4.63;;;2.60;;
40044;SDS011;25735;48.122;11.422;2023-04-15T00:08:06;3.20;;;2.38;;
40044;SDS011;25735;48.122;11.422;2023-04-15T00:10:32;4.60;;;2.17;;
40044;SDS011;25735;48.122;11.422;2023-04-15T00:12:57;7.20;;;2.60;;
40044;SDS011;25735;48.122;11.422;2023-04-15T00:15:22;4.40;;;3.17;;
40044;SDS011;25735;48.122;11.422;2023-04-15T00:17:49;7.23;;;2.67;;
40044;SDS011;25735;48.122;11.422;2023-04-15T00:20:14;7.22;;;2.28;;
40044;SDS011;25735;48.122;11.422;2023-04-15T00:22:40;5.30;;;2.95;;
40044;SDS011;25735;48.122;11.422;2023-04-15T00:25:05;5.60;;;2.22;;
40044;SDS011;25735;48.122;11.422;2023-04-15T00:27:30;6.28;;;2.90;;
40044;SDS011;25735;48.122;11.422;2023-04-15T00:29:56;5.72;;;2.85;;
40044;SDS011;25735;48.122;11.422;2023-04-15T00:32:21;4.70;;;3.17;;
40044;SDS011;25735;48.122;11.422;2023-04-15T00:34:46;6.35;;;3.10;;
40044;SDS011;25735;48.122;11.422;2023-04-15T00:37:11;3.05;;;2.53;;
40044;SDS011;25735;48.122;11.422;2023-04-15T00:39:36;8.90;;;2.70;;
40044;SDS011;25735;48.122;11.422;2023-04-15T00:42:03;5.87;;;2.53;;
40044;SDS011;25735;48.122;11.422;2023-04-15T00:44:28;5.45;;;3.25;;
40044;SDS011;25735;48.122;11.422;2023-04-15T00:46:54;5.70;;;3.20;;
40044;SDS011;25735;48.122;11.422;2023-04-15T00:49:19;5.30;;;2.50;;
40044;SDS011;25735;48.122;11.422;2023-04-15T00:51:44;5.27;;;2.97;;
40044;SDS011;25735;48.122;11.422;2023-04-15T00:54:09;3.28;;;2.10;;
40044;SDS011;25735;48.122;11.422;2023-04-15T00:56:35;4.95;;;2.83;;
40044;SDS011;25735;48.122;11.422;2023-04-15T00:59:02;5.68;;;2.45;;
40044;SDS011;25735;48.122;11.422;2023-04-15T01:01:27;6.68;;;2.92;;
40044;SDS011;25735;48.122;11.422;2023-04-15T01:03:53;6.07;;;3.50;;
40044;SDS011;25735;48.122;11.422;2023-04-15T01:06:19;4.43;;;2.95;;
40044;SDS011;25735;48.122;11.422;2023-04-15T01:08:44;10.38;;;2.88;;
40044;SDS011;25735;48.122;11.422;2023-04-15T01:11:09;4.25;;;2.97;;
40044;SDS011;25735;48.122;11.422;2023-04-15T01:13:36;4.70;;;2.70;;
40044;SDS011;25735;48.122;11.422;2023-04-15T01:16:01;5.75;;;2.95;;
40044;SDS011;25735;48.122;11.422;2023-04-15T01:18:27;4.78;;;2.83;;
40044;SDS011;25735;48.122;11.422;2023-04-15T01:20:52;6.68;;;2.85;;
40044;SDS011;25735;48.122;11.422;2023-04-15T01:23:18;4.57;;;2.90;;
40044;SDS011;25735;48.122;11.422;2023-04-15T01:25:43;7.95;;;3.20;;
40044;SDS011;25735;48.122;11.422;2023-04-15T01:28:09;4.30;;;2.85;;
40044;SDS011;25735;48.122;11.422;2023-04-15T01:30:35;4.55;;;2.83;;
40044;SDS011;25735;48.122;11.422;2023-04-15T01:33:00;8.55;;;3.13;;
40044;SDS011;25735;48.122;11.422;2023-04-15T01:35:25;6.45;;;3.05;;
40044;SDS011;25735;48.122;11.422;2023-04-15T01:37:51;8.82;;;3.50;;
40044;SDS011;25735;48.122;11.422;2023-04-15T01:40:16;5.68;;;3.10;;
40044;SDS011;25735;48.122;11.422;2023-04-15T01:42:41;5.50;;;2.97;;
40044;SDS011;25735;48.122;11.422;2023-04-15T01:45:07;10.13;;;4.27;;
40044;SDS011;25735;48.122;11.422;2023-04-15T01:47:32;5.55;;;3.15;;
40044;SDS011;25735;48.122;11.422;2023-04-15T01:49:57;6.93;;;3.10;;
40044;SDS011;25735;48.122;11.422;2023-04-15T01:52:22;5.57;;;3.17;;
40044;SDS011;25735;48.122;11.422;2023-04-15T01:54:48;5.82;;;2.97;;
40044;SDS011;25735;48.122;11.422;2023-04-15T01:57:13;4.00;;;3.28;;
40044;SDS011;25735;48.122;11.422;2023-04-15T01:59:38;7.03;;;3.60;;
40044;SDS011;25735;48.122;11.422;2023-04-15T02:02:03;7.83;;;3.10;;
40044;SDS011;25735;48.122;11.422;2023-04-15T02:04:29;4.60;;;2.92;;
40044;SDS011;25735;48.122;11.422;2023-04-15T02:06:54;5.83;;;3.33;;
40044;SDS011;25735;48.122;11.422;2023-04-15T02:09:19;7.65;;;3.50;;
40044;SDS011;25735;48.122;11.422;2023-04-15T02:11:44;6.53;;;2.80;;
40044;SDS011;25735;48.122;11.422;2023-04-15T02:14:10;5.85;;;3.42;;
40044;SDS011;25735;48.122;11.422;2023-04-15T02:16:35;5.97;;;2.43;;
40044;SDS011;25735;48.122;11.422;2023-04-15T02:19:00;4.65;;;3.10;;
40044;SDS011;25735;48.122;11.422;2023-04-15T02:21:26;10.32;;;3.10;;
40044;SDS011;25735;48.122;11.422;2023-04-15T02:23:51;5.20;;;2.80;;
40044;SDS011;25735;48.122;11.422;2023-04-15T02:26:17;6.45;;;3.15;;
40044;SDS011;25735;48.122;11.422;2023-04-15T02:28:43;6.28;;;2.65;;
40044;SDS011;25735;48.122;11.422;2023-04-15T02:31:08;4.43;;;2.70;;
40044;SDS011;25735;48.122;11.422;2023-04-15T02:33:33;4.80;;;2.85;;
40044;SDS011;25735;48.122;11.422;2023-04-15T02:35:59;6.65;;;3.10;;
40044;SDS011;25735;48.122;11.422;2023-04-15T02:38:24;4.07;;;2.60;;
40044;SDS011;25735;48.122;11.422;2023-04-15T02:40:49;5.80;;;3.30;;
40044;SDS011;25735;48.122;11.422;2023-04-15T02:43:15;5.70;;;2.85;;
40044;SDS011;25735;48.122;11.422;2023-04-15T02:45:41;4.65;;;2.80;;
40044;SDS011;25735;48.122;11.422;2023-04-15T02:48:07;4.35;;;2.95;;
40044;SDS011;25735;48.122;11.422;2023-04-15T02:50:32;7.35;;;3.40;;
40044;SDS011;25735;48.122;11.422;2023-04-15T02:52:57;4.95;;;2.50;;
40044;SDS011;25735;48.122;11.422;2023-04-15T02:55:25;5.97;;;3.35;;
40044;SDS011;25735;48.122;11.422;2023-04-15T02:57:50;13.40;;;3.83;;
40044;SDS011;25735;48.122;11.422;2023-04-15T03:00:15;6.27;;;3.57;;
40044;SDS011;25735;48.122;11.422;2023-04-15T03:02:40;6.63;;;2.55;;
40044;SDS011;25735;48.122;11.422;2023-04-15T03:05:09;5.88;;;2.92;;
40044;SDS011;25735;48.122;11.422;2023-04-15T03:07:35;4.25;;;2.60;;
40044;SDS011;25735;48.122;11.422;2023-04-15T03:10:00;4.32;;;2.75;;
40044;SDS011;25735;48.122;11.422;2023-04-15T03:12:26;4.10;;;2.78;;
40044;SDS011;25735;48.122;11.422;2023-04-15T03:14:51;6.78;;;2.35;;
40044;SDS011;25735;48.122;11.422;2023-04-15T03:17:17;3.10;;;2.57;;
40044;SDS011;25735;48.122;11.422;2023-04-15T03:19:42;5.60;;;2.22;;
40044;SDS011;25735;48.122;11.422;2023-04-15T03:22:07;4.95;;;2.50;;
40044;SDS011;25735;48.122;11.422;2023-04-15T03:24:33;4.53;;;2.47;;
40044;SDS011;25735;48.122;11.422;2023-04-15T03:26:58;4.60;;;2.20;;
40044;SDS011;25735;48.122;11.422;2023-04-15T03:29:23;3.15;;;1.95;;
40044;SDS011;25735;48.122;11.422;2023-04-15T03:31:48;2.97;;;2.03;;
40044;SDS011;25735;48.122;11.422;2023-04-15T03:34:13;3.80;;;2.50;;
40044;SDS011;25735;48.122;11.422;2023-04-15T03:36:39;5.30;;;2.35;;
40044;SDS011;25735;48.122;11.422;2023-04-15T03:39:04;5.60;;;2.20;;
40044;SDS011;25735;48.122;11.422;2023-04-15T03:41:29;3.78;;;2.50;;
40044;SDS011;25735;48.122;11.422;2023-04-15T03:43:55;4.50;;;2.97;;
40044;SDS011;25735;48.122;11.422;2023-04-15T03:46:20;4.70;;;2.07;;
40044;SDS011;25735;48.122;11.422;2023-04-15T03:48:45;5.05;;;2.42;;
40044;SDS011;25735;48.122;11.422;2023-04-15T03:51:11;4.45;;;1.95;;
40044;SDS011;25735;48.122;11.422;2023-04-15T03:53:36;4.97;;;2.63;;
40044;SDS011;25735;48.122;11.422;2023-04-15T03:56:01;6.87;;;2.23;;
40044;SDS011;25735;48.122;11.422;2023-04-15T03:58:26;4.10;;;1.88;;
40044;SDS011;25735;48.122;11.422;2023-04-15T04:00:51;4.68;;;2.10;;
40044;SDS011;25735;48.122;11.422;2023-04-15T04:03:17;7.10;;;2.28;;
40044;SDS011;25735;48.122;11.422;2023-04-15T04:05:42;4.63;;;2.10;;
40044;SDS011;25735;48.122;11.422;2023-04-15T04:08:08;5.53;;;2.55;;
40044;SDS011;25735;48.122;11.422;2023-04-15T04:10:33;3.20;;;2.00;;
40044;SDS011;25735;48.122;11.422;2023-04-15T04:12:58;8.32;;;2.10;;
40044;SDS011;25735;48.122;11.422;2023-04-15T04:15:24;4.97;;;1.60;;
40044;SDS011;25735;48.122;11.422;2023-04-15T04:17:49;4.85;;;2.47;;
40044;SDS011;25735;48.122;11.422;2023-04-15T04:20:14;3.60;;;2.28;;
40044;SDS011;25735;48.122;11.422;2023-04-15T04:22:40;7.40;;;2.10;;
40044;SDS011;25735;48.122;11.422;2023-04-15T04:25:05;4.47;;;2.33;;
40044;SDS011;25735;48.122;11.422;2023-04-15T04:27:32;6.95;;;1.95;;
40044;SDS011;25735;48.122;11.422;2023-04-15T04:29:57;3.92;;;1.80;;
40044;SDS011;25735;48.122;11.422;2023-04-15T04:32:22;3.97;;;1.90;;
40044;SDS011;25735;48.122;11.422;2023-04-15T04:34:48;2.95;;;1.67;;
40044;SDS011;25735;48.122;11.422;2023-04-15T04:37:13;5.40;;;1.73;;
40044;SDS011;25735;48.122;11.422;2023-04-15T04:39:38;4.10;;;1.95;;
40044;SDS011;25735;48.122;11.422;2023-04-15T04:42:03;10.77;;;2.40;;
40044;SDS011;25735;48.122;11.422;2023-04-15T04:44:29;3.90;;;1.77;;
40044;SDS011;25735;48.122;11.422;2023-04-15T04:46:54;3.72;;;1.65;;
40044;SDS011;25735;48.122;11.422;2023-04-15T04:49:19;3.58;;;1.75;;
40044;SDS011;25735;48.122;11.422;2023-04-15T04:51:44;3.92;;;2.20;;
40044;SDS011;25735;48.122;11.422;2023-04-15T04:54:11;5.07;;;1.90;;
40044;SDS011;25735;48.122;11.422;2023-04-15T04:56:36;3.80;;;2.20;;
40044;SDS011;25735;48.122;11.422;2023-04-15T04:59:03;6.63;;;3.58;;
40044;SDS011;25735;48.122;11.422;2023-04-15T05:01:28;2.00;;;1.60;;
40044;SDS011;25735;48.122;11.422;2023-04-15T05:03:53;5.93;;;2.10;;
40044;SDS011;25735;48.122;11.422;2023-04-15T05:06:18;6.00;;;2.10;;
40044;SDS011;25735;48.122;11.422;2023-04-15T05:08:43;3.30;;;1.97;;
40044;SDS011;25735;48.122;11.422;2023-04-15T05:11:10;2.72;;;1.60;;
40044;SDS011;25735;48.122;11.422;2023-04-15T05:13:35;1.75;;;1.30;;
40044;SDS011;25735;48.122;11.422;2023-04-15T05:16:03;3.67;;;1.98;;
40044;SDS011;25735;48.122;11.422;2023-04-15T05:18:28;3.40;;;2.05;;
40044;SDS011;25735;48.122;11.422;2023-04-15T05:20:53;5.28;;;1.85;;
40044;SDS011;25735;48.122;11.422;2023-04-15T05:23:18;4.90;;;1.77;;
40044;SDS011;25735;48.122;11.422;2023-04-15T05:25:43;3.63;;;1.90;;
40044;SDS011;25735;48.122;11.422;2023-04-15T05:28:09;3.63;;;1.50;;
40044;SDS011;25735;48.122;11.422;2023-04-15T05:30:34;3.80;;;2.38;;
40044;SDS011;25735;48.122;11.422;2023-04-15T05:32:59;8.07;;;2.15;;
40044;SDS011;25735;48.122;11.422;2023-04-15T05:35:24;3.42;;;2.78;;
40044;SDS011;25735;48.122;11.422;2023-04-15T05:37:50;4.28;;;1.30;;
40044;SDS011;25735;48.122;11.422;2023-04-15T05:40:15;8.38;;;1.77;;
40044;SDS011;25735;48.122;11.422;2023-04-15T05:42:40;4.07;;;1.50;;
40044;SDS011;25735;48.122;11.422;2023-04-15T05:45:06;4.20;;;1.65;;
40044;SDS011;25735;48.122;11.422;2023-04-15T05:47:33;4.07;;;1.63;;
40044;SDS011;25735;48.122;11.422;2023-04-15T05:49:58;2.60;;;1.63;;
40044;SDS011;25735;48.122;11.422;2023-04-15T05:52:24;2.20;;;1.55;;
40044;SDS011;25735;48.122;11.422;2023-04-15T05:54:49;2.42;;;1.02;;
40044;SDS011;25735;48.122;11.422;2023-04-15T05:57:14;3.95;;;1.42;;
40044;SDS011;25735;48.122;11.422;2023-04-15T05:59:40;2.47;;;1.15;;
40044;SDS011;25735;48.122;11.422;2023-04-15T06:02:06;3.75;;;1.48;;
40044;SDS011;25735;48.122;11.422;2023-04-15T06:04:31;3.55;;;1.42;;
40044;SDS011;25735;48.122;11.422;2023-04-15T06:06:56;4.57;;;1.50;;
40044;SDS011;25735;48.122;11.422;2023-04-15T06:09:21;3.97;;;1.30;;
40044;SDS011;25735;48.122;11.422;2023-04-15T06:11:46;2.15;;;1.20;;
40044;SDS011;25735;48.122;11.422;2023-04-15T06:14:12;2.03;;;1.10;;
40044;SDS011;25735;48.122;11.422;2023-04-15T06:16:37;2.47;;;1.40;;
40044;SDS011;25735;48.122;11.422;2023-04-15T06:19:02;1.67;;;0.90;;
40044;SDS011;25735;48.122;11.422;2023-04-15T06:21:28;3.25;;;1.95;;
40044;SDS011;25735;48.122;11.422;2023-04-15T06:23:53;4.93;;;2.17;;
40044;SDS011;25735;48.122;11.422;2023-04-15T06:26:18;3.47;;;1.25;;
40044;SDS011;25735;48.122;11.422;2023-04-15T06:28:44;5.55;;;1.55;;
40044;SDS011;25735;48.122;11.422;2023-04-15T06:31:09;2.13;;;1.45;;
40044;SDS011;25735;48.122;11.422;2023-04-15T06:33:34;4.22;;;1.45;;
40044;SDS011;25735;48.122;11.422;2023-04-15T06:35:59;4.30;;;1.20;;
40044;SDS011;25735;48.122;11.422;2023-04-15T06:38:24;2.15;;;1.05;;
40044;SDS011;25735;48.122;11.422;2023-04-15T06:40:50;3.03;;;1.60;;
40044;SDS011;25735;48.122;11.422;2023-04-15T06:43:15;3.13;;;1.00;;
40044;SDS011;25735;48.122;11.422;2023-04-15T06:45:40;4.63;;;1.55;;
40044;SDS011;25735;48.122;11.422;2023-04-15T06:48:05;4.97;;;1.20;;
40044;SDS011;25735;48.122;11.422;2023-04-15T06:50:31;1.25;;;0.95;;
40044;SDS011;25735;48.122;11.422;2023-04-15T06:52:56;2.42;;;1.35;;
40044;SDS011;25735;48.122;11.422;2023-04-15T06:55:22;3.08;;;1.17;;
40044;SDS011;25735;48.122;11.422;2023-04-15T06:57:47;1.83;;;1.17;;
40044;SDS011;25735;48.122;11.422;2023-04-15T07:00:12;1.90;;;1.10;;
40044;SDS011;25735;48.122;11.422;2023-04-15T07:02:37;3.42;;;1.20;;
40044;SDS011;25735;48.122;11.422;2023-04-15T07:05:03;2.55;;;1.45;;
40044;SDS011;25735;48.122;11.422;2023-04-15T07:07:28;4.07;;;1.10;;
40044;SDS011;25735;48.122;11.422;2023-04-15T07:09:53;3.58;;;1.00;;
40044;SDS011;25735;48.122;11.422;2023-04-15T07:12:19;2.27;;;0.90;;
40044;SDS011;25735;48.122;11.422;2023-04-15T07:14:44;4.40;;;1.50;;
40044;SDS011;25735;48.122;11.422;2023-04-15T07:17:09;4.93;;;1.13;;
40044;SDS011;25735;48.122;11.422;2023-04-15T07:19:35;2.00;;;1.15;;
40044;SDS011;25735;48.122;11.422;2023-04-15T07:22:00;1.55;;;0.90;;
40044;SDS011;25735;48.122;11.422;2023-04-15T07:24:25;4.40;;;1.40;;
40044;SDS011;25735;48.122;11.422;2023-04-15T07:26:52;6.68;;;1.20;;
40044;SDS011;25735;48.122;11.422;2023-04-15T07:29:17;1.92;;;1.30;;
40044;SDS011;25735;48.122;11.422;2023-04-15T07:31:42;2.00;;;1.07;;
40044;SDS011;25735;48.122;11.422;2023-04-15T07:34:07;2.23;;;0.80;;
40044;SDS011;25735;48.122;11.422;2023-04-15T07:36:32;4.72;;;1.40;;
40044;SDS011;25735;48.122;11.422;2023-04-15T07:38:58;2.88;;;1.20;;
40044;SDS011;25735;48.122;11.422;2023-04-15T07:41:25;3.30;;;1.13;;
40044;SDS011;25735;48.122;11.422;2023-04-15T07:43:51;3.88;;;1.27;;
40044;SDS011;25735;48.122;11.422;2023-04-15T07:46:16;1.73;;;0.80;;
40044;SDS011;25735;48.122;11.422;2023-04-15T07:48:41;4.50;;;2.10;;
40044;SDS011;25735;48.122;11.422;2023-04-15T07:51:07;1.00;;;0.77;;
40044;SDS011;25735;48.122;11.422;2023-04-15T07:53:32;2.60;;;1.50;;
40044;SDS011;25735;48.122;11.422;2023-04-15T07:55:57;1.80;;;1.08;;
40044;SDS011;25735;48.122;11.422;2023-04-15T07:58:23;1.13;;;0.95;;
40044;SDS011;25735;48.122;11.422;2023-04-15T08:00:48;3.20;;;1.20;;
40044;SDS011;25735;48.122;11.422;2023-04-15T08:03:13;1.38;;;1.00;;
40044;SDS011;25735;48.122;11.422;2023-04-15T08:05:39;3.38;;;0.90;;
40044;SDS011;25735;48.122;11.422;2023-04-15T08:08:05;2.42;;;1.02;;
40044;SDS011;25735;48.122;11.422;2023-04-15T08:10:30;2.17;;;0.87;;
40044;SDS011;25735;48.122;11.422;2023-04-15T08:12:55;2.65;;;1.05;;
40044;SDS011;25735;48.122;11.422;2023-04-15T08:15:21;3.20;;;1.33;;
40044;SDS011;25735;48.122;11.422;2023-04-15T08:17:46;2.92;;;0.68;;
40044;SDS011;25735;48.122;11.422;2023-04-15T08:20:11;2.72;;;1.02;;
40044;SDS011;25735;48.122;11.422;2023-04-15T08:22:37;2.35;;;1.27;;
40044;SDS011;25735;48.122;11.422;2023-04-15T08:25:02;2.00;;;1.42;;
40044;SDS011;25735;48.122;11.422;2023-04-15T08:27:28;2.33;;;1.00;;
40044;SDS011;25735;48.122;11.422;2023-04-15T08:29:53;4.07;;;1.13;;
40044;SDS011;25735;48.122;11.422;2023-04-15T08:32:18;4.45;;;1.55;;
40044;SDS011;25735;48.122;11.422;2023-04-15T08:34:44;4.25;;;1.60;;
40044;SDS011;25735;48.122;11.422;2023-04-15T08:37:09;4.88;;;1.38;;
40044;SDS011;25735;48.122;11.422;2023-04-15T08:39:34;3.17;;;1.40;;
40044;SDS011;25735;48.122;11.422;2023-04-15T08:42:00;4.10;;;1.43;;
40044;SDS011;25735;48.122;11.422;2023-04-15T08:44:27;2.17;;;1.25;;
40044;SDS011;25735;48.122;11.422;2023-04-15T08:46:53;4.93;;;1.88;;
40044;SDS011;25735;48.122;11.422;2023-04-15T08:49:19;3.40;;;1.40;;
40044;SDS011;25735;48.122;11.422;2023-04-15T08:51:45;2.33;;;1.27;;
40044;SDS011;25735;48.122;11.422;2023-04-15T08:54:10;2.65;;;1.65;;
40044;SDS011;25735;48.122;11.422;2023-04-15T08:56:37;2.13;;;1.20;;
40044;SDS011;25735;48.122;11.422;2023-04-15T08:59:02;1.77;;;1.20;;
40044;SDS011;25735;48.122;11.422;2023-04-15T09:01:28;2.83;;;1.42;;
40044;SDS011;25735;48.122;11.422;2023-04-15T09:03:53;3.85;;;1.83;;
40044;SDS011;25735;48.122;11.422;2023-04-15T09:06:20;2.67;;;1.48;;
40044;SDS011;25735;48.122;11.422;2023-04-15T09:08:46;2.45;;;1.92;;
40044;SDS011;25735;48.122;11.422;2023-04-15T09:11:11;2.42;;;1.88;;
40044;SDS011;25735;48.122;11.422;2023-04-15T09:13:37;3.00;;;1.70;;
40044;SDS011;25735;48.122;11.422;2023-04-15T09:16:02;3.38;;;1.70;;
40044;SDS011;25735;48.122;11.422;2023-04-15T09:18:29;2.20;;;1.60;;
40044;SDS011;25735;48.122;11.422;2023-04-15T09:20:55;2.70;;;2.45;;
40044;SDS011;25735;48.122;11.422;2023-04-15T09:23:21;3.20;;;1.88;;
40044;SDS011;25735;48.122;11.422;2023-04-15T09:25:46;4.97;;;2.35;;
40044;SDS011;25735;48.122;11.422;2023-04-15T09:28:13;2.92;;;1.88;;
40044;SDS011;25735;48.122;11.422;2023-04-15T09:30:38;6.10;;;2.63;;
40044;SDS011;25735;48.122;11.422;2023-04-15T09:33:07;2.75;;;1.92;;
40044;SDS011;25735;48.122;11.422;2023-04-15T09:35:32;4.35;;;2.05;;
40044;SDS011;25735;48.122;11.422;2023-04-15T09:38:04;3.38;;;2.00;;
40044;SDS011;25735;48.122;11.422;2023-04-15T09:42:57;3.25;;;2.30;;
40044;SDS011;25735;48.122;11.422;2023-04-15T09:45:22;2.50;;;1.90;;
40044;SDS011;25735;48.122;11.422;2023-04-15T09:47:48;3.03;;;2.20;;
40044;SDS011;25735;48.122;11.422;2023-04-15T09:50:15;4.85;;;2.30;;
40044;SDS011;25735;48.122;11.422;2023-04-15T09:52:40;2.55;;;2.08;;
40044;SDS011;25735;48.122;11.422;2023-04-15T09:55:10;2.08;;;1.83;;
40044;SDS011;25735;48.122;11.422;2023-04-15T09:57:35;5.05;;;2.25;;
40044;SDS011;25735;48.122;11.422;2023-04-15T10:00:02;3.67;;;1.85;;
40044;SDS011;25735;48.122;11.422;2023-04-15T10:02:27;4.32;;;2.70;;
40044;SDS011;25735;48.122;11.422;2023-04-15T10:04:54;4.72;;;2.60;;
40044;SDS011;25735;48.122;11.422;2023-04-15T10:07:19;4.93;;;2.40;;
40044;SDS011;25735;48.122;11.422;2023-04-15T10:09:47;2.90;;;2.33;;
40044;SDS011;25735;48.122;11.422;2023-04-15T10:12:13;3.83;;;2.72;;
40044;SDS011;25735;48.122;11.422;2023-04-15T10:14:38;4.40;;;2.40;;
40044;SDS011;25735;48.122;11.422;2023-04-15T10:17:04;4.32;;;2.50;;
40044;SDS011;25735;48.122;11.422;2023-04-15T10:19:30;7.68;;;2.53;;
40044;SDS011;25735;48.122;11.422;2023-04-15T10:21:55;3.00;;;2.08;;
40044;SDS011;25735;48.122;11.422;2023-04-15T10:24:21;3.50;;;2.67;;
40044;SDS011;25735;48.122;11.422;2023-04-15T10:26:46;7.85;;;2.78;;
40044;SDS011;25735;48.122;11.422;2023-04-15T10:29:12;3.53;;;2.07;;
40044;SDS011;25735;48.122;11.422;2023-04-15T10:31:37;3.80;;;2.60;;
40044;SDS011;25735;48.122;11.422;2023-04-15T10:34:03;3.05;;;2.50;;
40044;SDS011;25735;48.122;11.422;2023-04-15T10:36:30;5.25;;;2.85;;
40044;SDS011;25735;48.122;11.422;2023-04-15T10:38:55;6.28;;;3.50;;
40044;SDS011;25735;48.122;11.422;2023-04-15T10:41:22;4.87;;;3.13;;
40044;SDS011;25735;48.122;11.422;2023-04-15T10:46:38;4.07;;;2.63;;
40044;SDS011;25735;48.122;11.422;2023-04-15T10:49:07;4.07;;;2.70;;
40044;SDS011;25735;48.122;11.422;2023-04-15T10:51:35;4.95;;;3.72;;
40044;SDS011;25735;48.122;11.422;2023-04-15T10:54:01;4.40;;;2.78;;
40044;SDS011;25735;48.122;11.422;2023-04-15T10:56:29;5.00;;;3.10;;
40044;SDS011;25735;48.122;11.422;2023-04-15T10:58:57;5.60;;;3.60;;
40044;SDS011;25735;48.122;11.422;2023-04-15T11:01:22;4.22;;;2.85;;
40044;SDS011;25735;48.122;11.422;2023-04-15T11:04:07;3.63;;;2.90;;
40044;SDS011;25735;48.122;11.422;2023-04-15T11:06:44;4.27;;;2.70;;
40044;SDS011;25735;48.122;11.422;2023-04-15T11:09:19;5.93;;;3.63;;
40044;SDS011;25735;48.122;11.422;2023-04-15T11:12:04;7.57;;;3.20;;
40044;SDS011;25735;48.122;11.422;2023-04-15T11:14:31;4.55;;;3.28;;
40044;SDS011;25735;48.122;11.422;2023-04-15T11:16:56;4.47;;;2.90;;
40044;SDS011;25735;48.122;11.422;2023-04-15T11:19:22;4.03;;;3.17;;
40044;SDS011;25735;48.122;11.422;2023-04-15T11:21:47;3.72;;;2.30;;
40044;SDS011;25735;48.122;11.422;2023-04-15T11:24:22;5.78;;;4.20;;
40044;SDS011;25735;48.122;11.422;2023-04-15T11:26:50;5.22;;;3.80;;
40044;SDS011;25735;48.122;11.422;2023-04-15T11:29:18;4.88;;;2.67;;
40044;SDS011;25735;48.122;11.422;2023-04-15T11:31:45;7.65;;;3.58;;
40044;SDS011;25735;48.122;11.422;2023-04-15T11:34:13;3.90;;;3.60;;
40044;SDS011;25735;48.122;11.422;2023-04-15T11:36:46;5.75;;;3.25;;
40044;SDS011;25735;48.122;11.422;2023-04-15T11:39:12;3.92;;;2.30;;
40044;SDS011;25735;48.122;11.422;2023-04-15T11:41:37;5.38;;;3.25;;
40044;SDS011;25735;48.122;11.422;2023-04-15T11:44:02;4.33;;;2.73;;
40044;SDS011;25735;48.122;11.422;2023-04-15T11:46:40;4.18;;;3.20;;
40044;SDS011;25735;48.122;11.422;2023-04-15T11:49:05;5.23;;;3.70;;
40044;SDS011;25735;48.122;11.422;2023-04-15T11:51:33;8.83;;;5.40;;
40044;SDS011;25735;48.122;11.422;2023-04-15T11:53:59;7.32;;;4.10;;
40044;SDS011;25735;48.122;11.422;2023-04-15T11:56:25;9.27;;;4.22;;
40044;SDS011;25735;48.122;11.422;2023-04-15T11:58:51;9.65;;;6.90;;
40044;SDS011;25735;48.122;11.422;2023-04-15T12:01:17;8.52;;;6.10;;
40044;SDS011;25735;48.122;11.422;2023-04-15T12:03:44;9.98;;;5.35;;
40044;SDS011;25735;48.122;11.422;2023-04-15T12:06:10;6.20;;;3.67;;
40044;SDS011;25735;48.122;11.422;2023-04-15T12:11:29;6.05;;;4.68;;
40044;SDS011;25735;48.122;11.422;2023-04-15T12:14:01;5.68;;;3.72;;
40044;SDS011;25735;48.122;11.422;2023-04-15T12:16:26;8.75;;;4.15;;
40044;SDS011;25735;48.122;11.422;2023-04-15T12:18:52;5.07;;;3.53;;
40044;SDS011;25735;48.122;11.422;2023-04-15T12:21:20;4.15;;;3.30;;
40044;SDS011;25735;48.122;11.422;2023-04-15T12:26:14;5.20;;;3.83;;
40044;SDS011;25735;48.122;11.422;2023-04-15T12:28:40;5.47;;;3.57;;
40044;SDS011;25735;48.122;11.422;2023-04-15T12:31:09;4.20;;;3.10;;
40044;SDS011;25735;48.122;11.422;2023-04-15T12:33:35;4.22;;;2.92;;
40044;SDS011;25735;48.122;11.422;2023-04-15T12:36:00;4.45;;;3.03;;
40044;SDS011;25735;48.122;11.422;2023-04-15T12:38:25;5.05;;;3.25;;
40044;SDS011;25735;48.122;11.422;2023-04-15T12:40:50;3.23;;;2.43;;
40044;SDS011;25735;48.122;11.422;2023-04-15T12:43:15;3.78;;;2.63;;
40044;SDS011;25735;48.122;11.422;2023-04-15T12:45:41;4.47;;;2.63;;
40044;SDS011;25735;48.122;11.422;2023-04-15T12:48:06;4.07;;;2.88;;
40044;SDS011;25735;48.122;11.422;2023-04-15T12:50:33;3.97;;;2.67;;
40044;SDS011;25735;48.122;11.422;2023-04-15T12:52:58;4.22;;;3.15;;
40044;SDS011;25735;48.122;11.422;2023-04-15T12:55:23;3.47;;;2.67;;
40044;SDS011;25735;48.122;11.422;2023-04-15T12:57:48;4.30;;;2.13;;
40044;SDS011;25735;48.122;11.422;2023-04-15T13:00:13;3.60;;;2.60;;
40044;SDS011;25735;48.122;11.422;2023-04-15T13:02:39;5.78;;;3.28;;
40044;SDS011;25735;48.122;11.422;2023-04-15T13:05:04;5.10;;;2.50;;
40044;SDS011;25735;48.122;11.422;2023-04-15T13:07:29;3.88;;;2.08;;
40044;SDS011;25735;48.122;11.422;2023-04-15T13:09:54;3.53;;;2.20;;
40044;SDS011;25735;48.122;11.422;2023-04-15T13:12:20;3.10;;;2.72;;
40044;SDS011;25735;48.122;11.422;2023-04-15T13:14:45;3.30;;;2.97;;
40044;SDS011;25735;48.122;11.422;2023-04-15T13:17:11;3.73;;;2.30;;
40044;SDS011;25735;48.122;11.422;2023-04-15T13:19:37;2.45;;;1.80;;
40044;SDS011;25735;48.122;11.422;2023-04-15T13:22:02;3.53;;;2.13;;
40044;SDS011;25735;48.122;11.422;2023-04-15T13:24:27;3.13;;;1.77;;
40044;SDS011;25735;48.122;11.422;2023-04-15T13:26:53;4.63;;;2.50;;
40044;SDS011;25735;48.122;11.422;2023-04-15T13:29:18;4.93;;;2.20;;
40044;SDS011;25735;48.122;11.422;2023-04-15T13:31:44;3.25;;;2.50;;
40044;SDS011;25735;48.122;11.422;2023-04-15T13:34:09;4.00;;;3.10;;
40044;SDS011;25735;48.122;11.422;2023-04-15T13:36:34;5.78;;;3.75;;
40044;SDS011;25735;48.122;11.422;2023-04-15T13:38:59;3.17;;;2.40;;
40044;SDS011;25735;48.122;11.422;2023-04-15T13:41:25;3.60;;;2.55;;
40044;SDS011;25735;48.122;11.422;2023-04-15T13:43:50;5.30;;;2.92;;
40044;SDS011;25735;48.122;11.422;2023-04-15T13:46:15;5.03;;;3.38;;
40044;SDS011;25735;48.122;11.422;2023-04-15T13:48:40;4.45;;;2.95;;
40044;SDS011;25735;48.122;11.422;2023-04-15T13:51:05;4.40;;;3.00;;
40044;SDS011;25735;48.122;11.422;2023-04-15T13:53:31;5.38;;;3.72;;
40044;SDS011;25735;48.122;11.422;2023-04-15T13:55:56;4.03;;;3.15;;
40044;SDS011;25735;48.122;11.422;2023-04-15T13:58:21;5.80;;;3.60;;
40044;SDS011;25735;48.122;11.422;2023-04-15T14:00:46;4.47;;;3.60;;
40044;SDS011;25735;48.122;11.422;2023-04-15T14:03:11;5.43;;;3.60;;
40044;SDS011;25735;48.122;11.422;2023-04-15T14:05:36;6.43;;;3.87;;
40044;SDS011;25735;48.122;11.422;2023-04-15T14:08:02;7.30;;;3.07;;
40044;SDS011;25735;48.122;11.422;2023-04-15T14:10:27;3.90;;;3.27;;
40044;SDS011;25735;48.122;11.422;2023-04-15T14:12:52;5.00;;;3.37;;
40044;SDS011;25735;48.122;11.422;2023-04-15T14:15:17;4.37;;;2.70;;
40044;SDS011;25735;48.122;11.422;2023-04-15T14:17:42;2.85;;;2.55;;
40044;SDS011;25735;48.122;11.422;2023-04-15T14:20:08;3.83;;;2.97;;
40044;SDS011;25735;48.122;11.422;2023-04-15T14:22:33;3.83;;;2.75;;
40044;SDS011;25735;48.122;11.422;2023-04-15T14:24:58;3.70;;;2.87;;
40044;SDS011;25735;48.122;11.422;2023-04-15T14:27:24;4.53;;;2.90;;
40044;SDS011;25735;48.122;11.422;2023-04-15T14:29:49;4.70;;;3.93;;
40044;SDS011;25735;48.122;11.422;2023-04-15T14:32:14;5.03;;;3.35;;
40044;SDS011;25735;48.122;11.422;2023-04-15T14:34:40;4.70;;;3.72;;